Time;durP1;ratioP1;P1;durP2;ratioP2;P2;SDS_P1;SDS_P2;PMS_P1;PMS_P2;Temp;Humidity;BMP_temperature;BMP_pressure;BME280_temperature;BME280_humidity;BME280_pressure;Samples;Min_cycle;Max_cycle;Signal;HPM_P1;HPM_P2
2023/09/29 00:00:42;;;;;;;;;;;20.50;49.40;;;19.93;50.27;101401.34;12269648;19;20136;-84
2023/09/29 00:04:44;;;;;;;;;;;20.50;49.50;;;19.89;50.27;101403.41;12271075;19;19915;-84
2023/09/29 00:08:45;;;;;;;;;;;20.40;49.50;;;19.77;50.54;101399.97;12271536;19;19938;-84
2023/09/29 00:12:48;;;;;;;;;;;20.40;49.60;;;19.83;50.57;101414.53;12269195;19;19982;-84
2023/09/29 00:16:50;;;;;;;;;;;20.40;49.60;;;19.77;50.38;101405.28;12271255;19;19938;-83
2023/09/29 00:20:51;;;;;;;;;;;20.40;49.60;;;19.63;50.48;101393.16;12267727;19;19926;-83
2023/09/29 00:24:54;;;;;;;;;;;20.30;49.50;;;19.68;50.36;101408.69;12270657;19;19923;-82
2023/09/29 00:28:56;;;;;;;;;;;20.30;49.50;;;19.60;50.29;101400.50;12270381;19;19915;-83
2023/09/29 00:32:58;;;;;;;;;;;20.20;49.50;;;19.57;50.50;101409.53;12270939;19;19930;-81
2023/09/29 00:36:59;;;;;;;;;;;20.10;49.40;;;19.52;50.21;101408.22;12269340;19;19936;-84
2023/09/29 00:41:01;;;;;;;;;;;20.10;49.50;;;19.38;50.45;101394.31;12268804;19;19922;-84
2023/09/29 00:45:03;;;;;;;;;;;20.00;49.40;;;19.40;50.54;101396.84;12267349;19;19943;-84
2023/09/29 00:49:04;;;;;;;;;;;20.00;49.50;;;19.35;50.29;101399.84;12266389;19;19956;-84
2023/09/29 00:53:11;;;;;;;;;;;20.00;49.60;;;19.16;50.63;101366.09;12267711;19;20404;-84
2023/09/29 00:57:13;;;;;;;;;;;19.90;49.60;;;19.19;50.67;101378.25;12266507;19;19933;-83
2023/09/29 01:01:16;;;;;;;;;;;19.90;49.50;;;19.21;50.41;101387.75;12267540;19;19926;-84
2023/09/29 01:05:18;;;;;;;;;;;19.90;49.60;;;19.19;50.70;101388.84;12267311;19;19926;-84
2023/09/29 01:09:21;;;;;;;;;;;19.80;49.60;;;19.12;50.46;101377.03;12264472;19;19921;-84
2023/09/29 01:13:23;;;;;;;;;;;19.80;49.70;;;19.16;50.69;101381.97;12263620;19;20326;-83
2023/09/29 01:17:25;;;;;;;;;;;19.80;49.70;;;19.06;50.73;101377.56;12263587;19;19930;-84
2023/09/29 01:21:30;;;;;;;;;;;19.70;49.50;;;18.97;50.56;101366.75;12265053;19;19919;-84
2023/09/29 01:25:33;;;;;;;;;;;19.70;49.50;;;18.96;50.87;101378.31;12265883;19;20250;-84
2023/09/29 01:29:34;;;;;;;;;;;19.60;49.50;;;18.91;50.77;101367.25;12265208;19;19931;-84
2023/09/29 01:33:39;;;;;;;;;;;19.60;49.60;;;18.81;50.57;101357.50;12268314;19;19918;-84
2023/09/29 01:37:42;;;;;;;;;;;19.50;49.50;;;18.71;50.43;101352.06;12265982;19;19939;-84
2023/09/29 01:41:44;;;;;;;;;;;19.50;49.60;;;18.72;50.65;101364.34;12266943;19;19922;-84
2023/09/29 01:45:46;;;;;;;;;;;19.30;49.50;;;18.70;50.82;101358.34;12267779;19;19923;-83
2023/09/29 01:49:48;;;;;;;;;;;19.30;49.70;;;18.70;50.89;101363.63;12264850;19;19918;-84
2023/09/29 01:53:50;;;;;;;;;;;19.30;49.70;;;18.66;51.03;101360.38;12266361;19;19922;-84
2023/09/29 01:57:56;;;;;;;;;;;19.30;49.80;;;18.61;51.01;101351.13;12261405;19;19974;-83
2023/09/29 02:01:57;;;;;;;;;;;19.20;49.80;;;18.60;51.12;101365.31;12264979;19;19922;-84
2023/09/29 02:06:02;;;;;;;;;;;19.20;49.90;;;18.58;50.91;101361.00;12271715;19;19919;-84
2023/09/29 02:10:04;;;;;;;;;;;19.20;49.90;;;18.51;51.02;101351.00;12275298;19;19926;-84
2023/09/29 02:14:06;;;;;;;;;;;19.20;49.90;;;18.50;50.83;101366.03;12278469;19;20249;-83
2023/09/29 02:18:09;;;;;;;;;;;19.20;49.90;;;18.45;50.86;101354.97;12271815;19;19919;-84
2023/09/29 02:22:11;;;;;;;;;;;19.20;50.30;;;18.47;50.86;101365.41;12273748;19;19923;-83
2023/09/29 02:26:13;;;;;;;;;;;19.10;49.80;;;18.38;50.82;101353.78;12273406;19;19923;-82
2023/09/29 02:30:16;;;;;;;;;;;19.10;49.80;;;18.40;50.99;101364.25;12268064;19;19919;-82
2023/09/29 02:34:18;;;;;;;;;;;19.10;49.80;;;18.39;51.11;101368.69;12271091;19;19911;-82
2023/09/29 02:38:20;;;;;;;;;;;19.10;49.90;;;18.33;51.11;101362.09;12267347;19;19938;-84
2023/09/29 02:42:22;;;;;;;;;;;19.00;49.90;;;18.34;51.29;101360.28;12269075;19;19931;-83
2023/09/29 02:46:23;;;;;;;;;;;19.00;49.90;;;18.30;51.23;101362.28;12267498;19;19917;-84
2023/09/29 02:50:25;;;;;;;;;;;19.00;49.90;;;18.21;51.20;101339.22;12264812;19;19922;-84
2023/09/29 02:54:29;;;;;;;;;;;19.00;49.90;;;18.23;51.04;101353.19;12267351;19;20278;-84
2023/09/29 02:58:30;;;;;;;;;;;18.90;49.90;;;18.22;51.38;101348.00;12267092;19;20567;-84
2023/09/29 03:02:32;;;;;;;;;;;18.90;49.90;;;18.16;51.46;101346.66;12265981;19;20512;-83
2023/09/29 03:06:35;;;;;;;;;;;18.90;49.90;;;18.10;51.34;101337.41;12269035;19;19922;-83
2023/09/29 03:10:37;;;;;;;;;;;18.80;50.00;;;18.00;51.18;101333.78;12268046;19;19982;-83
2023/09/29 03:14:38;;;;;;;;;;;18.80;49.90;;;18.04;51.44;101335.25;12271917;19;19929;-84
2023/09/29 03:18:40;;;;;;;;;;;18.80;50.00;;;18.03;51.44;101340.63;12268377;19;19947;-83
2023/09/29 03:22:44;;;;;;;;;;;18.70;50.00;;;18.02;51.42;101334.53;12271528;19;19926;-84
2023/09/29 03:26:46;;;;;;;;;;;18.70;50.00;;;17.69;51.39;101285.06;12272855;19;19921;-84
2023/09/29 03:30:48;;;;;;;;;;;18.70;50.00;;;17.99;51.09;101326.81;12266044;19;20379;-84
2023/09/29 03:34:49;;;;;;;;;;;18.70;50.00;;;17.97;51.41;101341.97;12272529;19;19926;-83
2023/09/29 03:38:54;;;;;;;;;;;18.70;50.00;;;17.95;51.45;101332.47;12270497;19;19942;-83
2023/09/29 03:42:55;;;;;;;;;;;18.70;50.00;;;17.92;51.70;101334.38;12271752;19;19923;-82
2023/09/29 03:46:57;;;;;;;;;;;18.70;50.00;;;17.83;51.42;101328.97;12268183;19;19923;-84
2023/09/29 03:51:02;;;;;;;;;;;18.60;50.00;;;17.90;51.57;101340.72;12267526;19;19982;-83
2023/09/29 03:55:04;;;;;;;;;;;18.60;50.10;;;17.89;51.72;101339.91;12267941;19;20364;-84
2023/09/29 03:59:05;;;;;;;;;;;18.60;50.10;;;17.70;51.53;101306.06;12269781;19;19929;-84
2023/09/29 04:03:07;;;;;;;;;;;18.60;50.10;;;17.87;51.71;101330.41;12267943;19;19971;-83
2023/09/29 04:07:09;;;;;;;;;;;18.60;50.10;;;17.83;51.58;101334.25;12267573;19;19943;-83
2023/09/29 04:11:10;;;;;;;;;;;18.60;50.10;;;17.82;51.45;101351.03;12272096;19;19919;-83
2023/09/29 04:15:12;;;;;;;;;;;18.50;50.00;;;17.77;51.65;101339.94;12269676;19;19970;-83
2023/09/29 04:19:15;;;;;;;;;;;18.50;50.00;;;17.70;51.51;101329.84;12257676;19;19974;-83
2023/09/29 04:23:17;;;;;;;;;;;18.50;50.10;;;17.65;51.56;101328.50;12262483;19;19944;-84
2023/09/29 04:27:18;;;;;;;;;;;18.40;50.10;;;17.58;51.57;101319.34;12260662;19;19926;-83
2023/09/29 04:31:20;;;;;;;;;;;18.40;50.00;;;17.56;51.58;101331.84;12253874;19;19922;-83
2023/09/29 04:35:21;;;;;;;;;;;18.30;50.00;;;17.50;51.63;101330.53;12256228;19;19915;-83
2023/09/29 04:39:22;;;;;;;;;;;18.20;50.30;;;17.38;51.51;101320.88;12257037;19;19986;-82
2023/09/29 04:43:24;;;;;;;;;;;18.10;49.90;;;17.17;51.72;101299.53;12259022;19;20242;-84
2023/09/29 04:47:27;;;;;;;;;;;18.20;50.40;;;17.38;51.71;101339.34;12260381;19;19919;-83
2023/09/29 04:51:29;;;;;;;;;;;18.20;50.20;;;17.23;51.52;101314.94;12257515;19;19921;-84
2023/09/29 04:55:31;;;;;;;;;;;18.10;50.20;;;17.41;51.60;101350.50;12260525;19;19919;-81
2023/09/29 04:59:32;;;;;;;;;;;18.20;50.20;;;17.41;51.79;101345.22;12263365;19;20274;-82
2023/09/29 05:03:33;;;;;;;;;;;18.20;50.30;;;17.36;51.56;101347.41;12260539;19;19919;-81
2023/09/29 05:07:35;;;;;;;;;;;18.20;50.20;;;17.31;51.86;101341.59;12263412;19;19918;-83
2023/09/29 05:11:36;;;;;;;;;;;18.10;50.20;;;17.36;51.89;101351.81;12264896;19;19922;-83
2023/09/29 05:15:37;;;;;;;;;;;18.10;50.10;;;17.33;51.71;101354.69;12262727;19;19933;-83
2023/09/29 05:19:39;;;;;;;;;;;18.10;50.20;;;17.27;51.81;101344.56;12261176;19;19919;-83
2023/09/29 05:23:42;;;;;;;;;;;18.10;50.10;;;17.24;51.67;101343.00;12262454;19;19943;-83
2023/09/29 05:27:43;;;;;;;;;;;18.00;50.20;;;17.17;51.65;101337.31;12261044;19;19918;-83
2023/09/29 05:31:45;;;;;;;;;;;18.00;50.10;;;17.09;51.74;101317.72;12260180;19;19931;-83
2023/09/29 05:35:47;;;;;;;;;;;17.90;50.10;;;17.08;51.77;101338.00;12263247;19;19979;-84
2023/09/29 05:39:48;;;;;;;;;;;17.90;50.10;;;17.07;51.89;101338.13;12260288;19;19915;-83
2023/09/29 05:43:49;;;;;;;;;;;17.90;50.20;;;17.07;51.99;101360.06;12270588;19;19947;-84
2023/09/29 05:47:51;;;;;;;;;;;17.90;50.30;;;17.07;51.81;101362.72;12284381;19;20576;-83
2023/09/29 05:51:53;;;;;;;;;;;17.90;50.40;;;17.01;52.18;101347.31;12272983;19;19915;-83
2023/09/29 05:55:54;;;;;;;;;;;17.90;50.50;;;17.09;51.90;101370.50;12279415;19;20337;-83
2023/09/29 05:59:56;;;;;;;;;;;17.90;50.50;;;17.09;52.00;101352.88;12269597;19;19926;-82
2023/09/29 06:03:58;;;;;;;;;;;17.90;50.50;;;17.08;52.13;101359.13;12270101;19;19919;-83
2023/09/29 06:07:59;;;;;;;;;;;17.90;50.60;;;16.99;52.10;101338.69;12266351;19;19919;-83
2023/09/29 06:12:01;;;;;;;;;;;17.90;50.70;;;17.05;52.09;101346.16;12279439;19;19914;-83
2023/09/29 06:16:04;;;;;;;;;;;17.90;50.70;;;17.06;52.14;101347.81;12273689;19;19923;-84
2023/09/29 06:20:06;;;;;;;;;;;17.90;50.80;;;17.01;52.23;101342.03;12273571;19;19918;-84
2023/09/29 06:24:09;;;;;;;;;;;17.90;50.90;;;17.12;52.24;101355.31;12283521;19;19923;-83
2023/09/29 06:28:10;;;;;;;;;;;17.90;51.00;;;17.18;52.34;101356.66;12281045;19;19922;-84
2023/09/29 06:32:13;;;;;;;;;;;18.00;51.10;;;17.20;52.35;101358.22;12278610;19;19919;-84
2023/09/29 06:36:14;;;;;;;;;;;18.00;51.30;;;17.31;52.50;101364.50;12278172;19;20259;-84
2023/09/29 06:40:16;;;;;;;;;;;18.10;51.40;;;17.40;52.33;101367.31;12261678;19;19950;-83
2023/09/29 06:44:18;;;;;;;;;;;18.20;51.50;;;17.44;52.41;101360.00;12272577;19;19919;-83
2023/09/29 06:48:19;;;;;;;;;;;18.30;51.60;;;17.50;52.64;101356.94;12271252;19;19929;-83
2023/09/29 06:52:21;;;;;;;;;;;18.40;51.90;;;17.63;52.71;101362.13;12272641;19;19915;-83
2023/09/29 06:56:23;;;;;;;;;;;18.50;51.90;;;17.61;52.84;101351.69;12272164;19;19936;-82
2023/09/29 07:00:25;;;;;;;;;;;18.60;51.90;;;17.73;52.89;101360.47;12267105;19;19949;-83
2023/09/29 07:04:26;;;;;;;;;;;18.70;51.90;;;17.87;52.94;101362.94;12266885;19;20471;-82
2023/09/29 07:08:28;;;;;;;;;;;18.80;52.00;;;17.86;52.70;101355.16;12269107;19;19922;-84
2023/09/29 07:12:29;;;;;;;;;;;18.90;52.10;;;18.07;52.93;101363.25;12266130;19;19922;-84
2023/09/29 07:16:32;;;;;;;;;;;19.00;52.10;;;18.04;53.07;101352.91;12270767;19;19950;-84
2023/09/29 07:20:33;;;;;;;;;;;19.10;52.30;;;18.23;52.84;101373.50;12266025;19;19947;-83
2023/09/29 07:24:35;;;;;;;;;;;19.20;52.40;;;18.32;53.24;101372.75;12268175;19;19941;-84
2023/09/29 07:28:37;;;;;;;;;;;19.30;52.50;;;18.38;53.25;101360.88;12260248;19;19919;-84
2023/09/29 07:32:41;;;;;;;;;;;19.40;52.60;;;18.39;53.09;101352.81;12262051;19;20380;-83
2023/09/29 07:36:46;;;;;;;;;;;19.50;52.70;;;18.55;53.23;101366.53;12263182;19;19938;-84
2023/09/29 07:40:48;;;;;;;;;;;19.60;52.70;;;18.46;53.37;101351.38;12261597;19;19939;-83
2023/09/29 07:44:49;;;;;;;;;;;19.70;52.60;;;18.74;53.23;101372.97;12274761;19;19915;-83
2023/09/29 07:48:51;;;;;;;;;;;19.80;52.60;;;18.88;53.20;101375.44;12266981;19;19919;-82
2023/09/29 07:52:52;;;;;;;;;;;19.90;52.70;;;19.04;53.38;101368.88;12263825;19;19919;-82
2023/09/29 07:56:54;;;;;;;;;;;20.10;53.00;;;19.14;53.52;101359.25;12268088;19;19923;-83
2023/09/29 08:00:55;;;;;;;;;;;20.20;52.80;;;19.39;53.55;101374.81;12269577;19;19947;-84
2023/09/29 08:04:57;;;;;;;;;;;20.40;53.00;;;19.48;53.70;101353.84;12270064;19;20395;-84
2023/09/29 08:09:00;;;;;;;;;;;20.60;52.90;;;19.72;53.40;101370.38;12269476;19;20026;-83
2023/09/29 08:13:02;;;;;;;;;;;20.70;52.90;;;19.90;53.44;101373.28;12270783;19;19915;-83
2023/09/29 08:17:03;;;;;;;;;;;21.00;53.10;;;20.04;53.77;101370.31;12267259;19;19915;-84
2023/09/29 08:21:05;;;;;;;;;;;21.10;53.10;;;20.28;53.79;101367.38;12270541;19;19998;-83
2023/09/29 08:25:10;;;;;;;;;;;21.40;53.10;;;20.48;53.91;101367.44;12266604;19;19911;-83
2023/09/29 08:29:15;;;;;;;;;;;21.60;52.80;;;20.66;53.54;101363.22;12273170;19;19933;-83
2023/09/29 08:33:17;;;;;;;;;;;21.80;52.90;;;20.69;54.04;101338.25;12269189;19;19923;-84
2023/09/29 08:37:19;;;;;;;;;;;22.00;52.80;;;20.99;53.67;101350.59;12270815;19;19922;-83
2023/09/29 08:41:25;;;;;;;;;;;22.20;52.60;;;21.20;54.01;101358.47;12265831;19;19925;-83
2023/09/29 08:45:28;;;;;;;;;;;22.40;52.50;;;21.33;53.72;101360.81;12268557;19;19925;-82
2023/09/29 08:49:30;;;;;;;;;;;22.60;52.50;;;21.43;53.98;101351.91;12264617;19;19926;-81
2023/09/29 08:53:31;;;;;;;;;;;22.70;52.40;;;21.61;53.88;101364.50;12265778;19;19923;-82
2023/09/29 08:57:33;;;;;;;;;;;22.80;52.10;;;21.67;53.73;101345.31;12268006;19;20022;-84
2023/09/29 09:01:35;;;;;;;;;;;22.90;52.30;;;21.79;53.42;101351.31;12265267;19;19951;-82
2023/09/29 09:05:36;;;;;;;;;;;23.00;52.00;;;21.96;53.68;101366.56;12268970;19;20365;-83
2023/09/29 09:09:45;;;;;;;;;;;23.20;51.90;;;22.05;53.49;101357.69;12264211;19;19919;-84
2023/09/29 09:14:03;;;;;;;;;;;23.30;52.10;;;22.19;53.57;101356.44;12264606;19;19940;-83
2023/09/29 09:18:05;;;;;;;;;;;23.40;52.00;;;22.27;53.65;101347.72;12275787;19;19923;-83
2023/09/29 09:22:27;;;;;;;;;;;23.40;51.90;;;22.36;53.60;101349.53;12276876;19;19938;-83
2023/09/29 09:26:29;;;;;;;;;;;23.50;52.00;;;22.41;53.32;101344.56;12278942;19;20325;-83
2023/09/29 09:30:36;;;;;;;;;;;23.70;51.90;;;22.56;53.35;101366.25;12277031;19;19922;-84
2023/09/29 09:34:38;;;;;;;;;;;23.70;51.80;;;22.43;53.56;101339.97;12280431;19;19919;-83
2023/09/29 09:38:39;;;;;;;;;;;23.80;51.80;;;22.69;53.80;101371.22;12273747;19;19923;-83
2023/09/29 09:42:40;;;;;;;;;;;23.90;51.80;;;22.77;53.83;101362.50;12276832;19;19949;-83
2023/09/29 09:46:42;;;;;;;;;;;23.90;51.80;;;22.87;53.60;101365.94;12279442;19;19915;-84
2023/09/29 09:50:48;;;;;;;;;;;24.00;51.70;;;22.94;53.68;101373.19;12270301;19;19942;-83
2023/09/29 09:54:52;;;;;;;;;;;24.10;51.60;;;23.00;53.72;101369.13;12278598;19;19918;-83
2023/09/29 09:58:53;;;;;;;;;;;24.20;51.70;;;23.05;53.61;101363.34;12272948;19;19915;-83
2023/09/29 10:03:00;;;;;;;;;;;24.20;51.70;;;23.06;53.26;101351.69;12274668;19;19926;-83
2023/09/29 10:07:04;;;;;;;;;;;24.30;51.60;;;23.18;53.58;101372.63;12272502;19;19943;-84
2023/09/29 10:11:10;;;;;;;;;;;24.40;51.70;;;23.29;53.28;101387.56;12267642;19;19943;-83
2023/09/29 10:15:15;;;;;;;;;;;24.40;51.60;;;23.31;53.64;101382.09;12274138;19;19919;-83
2023/09/29 10:19:16;;;;;;;;;;;24.50;51.50;;;23.25;53.61;101369.34;12263757;19;19926;-82
2023/09/29 10:23:18;;;;;;;;;;;24.50;51.50;;;23.45;53.63;101391.38;12258673;19;19926;-84
2023/09/29 10:27:32;;;;;;;;;;;24.60;51.50;;;23.50;53.17;101367.78;12265643;19;19946;-84
2023/09/29 10:31:35;;;;;;;;;;;24.60;51.40;;;23.49;53.21;101361.59;12257306;19;19926;-84
2023/09/29 10:35:46;;;;;;;;;;;24.70;51.40;;;23.62;53.43;101374.53;12269232;19;19942;-84
2023/09/29 10:39:48;;;;;;;;;;;24.70;51.40;;;23.62;53.56;101361.19;12265121;19;19959;-84
2023/09/29 10:43:50;;;;;;;;;;;24.80;51.40;;;23.74;53.49;101381.34;12270073;19;20684;-84
2023/09/29 10:47:53;;;;;;;;;;;24.80;51.20;;;23.69;53.17;101340.09;12266329;19;19934;-84
2023/09/29 10:51:56;;;;;;;;;;;24.90;51.30;;;23.84;52.99;101362.56;12267533;19;19927;-83
2023/09/29 10:55:59;;;;;;;;;;;24.90;51.30;;;23.91;53.47;101378.78;12269787;19;19927;-82
2023/09/29 11:00:01;;;;;;;;;;;25.00;51.20;;;23.91;52.83;101362.78;12257998;19;19944;-82
2023/09/29 11:04:09;;;;;;;;;;;25.00;51.10;;;23.97;53.31;101364.81;12261838;19;19926;-83
2023/09/29 11:08:11;;;;;;;;;;;25.10;51.20;;;24.07;53.20;101376.25;12261925;19;19915;-82
2023/09/29 11:12:17;;;;;;;;;;;25.10;51.10;;;24.10;53.27;101364.41;12266324;19;19925;-84
2023/09/29 11:16:18;;;;;;;;;;;25.10;51.10;;;24.08;53.00;101353.88;12262194;19;20286;-83
2023/09/29 11:20:26;;;;;;;;;;;25.20;51.10;;;24.20;53.13;101360.63;12271047;19;20010;-85
2023/09/29 11:24:43;;;;;;;;;;;25.20;51.20;;;24.29;53.11;101365.00;12273533;19;19922;-83
2023/09/29 11:28:51;;;;;;;;;;;25.30;51.20;;;24.35;53.00;101358.19;12262840;19;19919;-83
2023/09/29 11:32:53;;;;;;;;;;;25.40;51.20;;;24.41;52.99;101346.91;12271917;19;19926;-84
2023/09/29 11:36:55;;;;;;;;;;;25.40;51.10;;;24.45;53.40;101342.09;12269767;19;20396;-83
2023/09/29 11:40:56;;;;;;;;;;;25.50;51.20;;;24.47;52.66;101343.63;12267331;19;19918;-82
2023/09/29 11:44:59;;;;;;;;;;;25.50;51.00;;;24.58;52.90;101350.50;12272138;19;19922;-83
2023/09/29 11:49:00;;;;;;;;;;;25.60;51.10;;;24.62;52.95;101353.69;12271548;19;19926;-85
2023/09/29 11:53:06;;;;;;;;;;;25.60;51.10;;;24.63;52.92;101334.84;12270359;19;19923;-82
2023/09/29 11:57:07;;;;;;;;;;;25.70;50.90;;;24.71;52.62;101344.72;12274173;19;19926;-82
2023/09/29 12:01:10;;;;;;;;;;;25.70;50.90;;;24.71;52.83;101340.19;12266616;19;19926;-82
2023/09/29 12:05:11;;;;;;;;;;;25.80;50.90;;;24.68;53.10;101332.50;12258492;19;19922;-83
2023/09/29 12:09:13;;;;;;;;;;;25.80;50.90;;;24.81;52.63;101333.88;12260050;19;19915;-83
2023/09/29 12:13:15;;;;;;;;;;;25.80;51.00;;;24.84;52.94;101338.88;12264551;19;20381;-84
2023/09/29 12:17:18;;;;;;;;;;;25.90;50.90;;;24.85;52.72;101335.22;12279223;19;19915;-83
2023/09/29 12:21:19;;;;;;;;;;;25.90;50.80;;;24.89;52.84;101334.72;12284931;19;19925;-84
2023/09/29 12:25:21;;;;;;;;;;;25.90;50.90;;;24.86;53.09;101327.03;12271618;19;19943;-85
2023/09/29 12:29:24;;;;;;;;;;;25.90;50.90;;;24.98;52.48;101332.94;12262913;19;19936;-84
2023/09/29 12:33:25;;;;;;;;;;;25.90;50.90;;;24.93;52.85;101320.03;12267664;19;19914;-84
2023/09/29 12:37:27;;;;;;;;;;;26.00;51.10;;;24.90;52.35;101303.53;12269664;19;19936;-85
2023/09/29 12:41:28;;;;;;;;;;;26.00;51.00;;;25.07;52.66;101320.41;12272167;19;19919;-84
2023/09/29 12:45:30;;;;;;;;;;;26.10;51.10;;;25.09;52.38;101318.41;12265308;19;19959;-84
2023/09/29 12:49:32;;;;;;;;;;;26.10;50.90;;;25.11;52.62;101306.56;12261644;19;19927;-85
2023/09/29 12:53:33;;;;;;;;;;;26.10;50.90;;;25.17;52.41;101307.75;12268340;19;19919;-85
2023/09/29 12:57:35;;;;;;;;;;;26.10;51.00;;;25.15;52.33;101297.22;12266410;19;19926;-83
2023/09/29 13:01:38;;;;;;;;;;;26.10;51.00;;;25.18;52.26;101298.72;12265007;19;19918;-83
2023/09/29 13:05:39;;;;;;;;;;;26.20;51.00;;;25.25;52.31;101301.56;12265870;19;19947;-85
2023/09/29 13:09:41;;;;;;;;;;;26.20;51.10;;;25.25;52.50;101306.91;12263563;19;19919;-83
2023/09/29 13:13:44;;;;;;;;;;;26.20;50.90;;;25.28;52.43;101306.59;12266312;19;19925;-85
2023/09/29 13:17:46;;;;;;;;;;;26.20;50.90;;;25.28;52.66;101307.44;12266027;19;20345;-85
2023/09/29 13:21:47;;;;;;;;;;;26.20;50.90;;;25.25;52.56;101285.50;12273256;19;19929;-85
2023/09/29 13:25:51;;;;;;;;;;;26.20;51.10;;;25.27;52.19;101299.56;12270619;19;19929;-85
2023/09/29 13:29:53;;;;;;;;;;;26.20;51.10;;;25.31;52.38;101293.72;12267280;19;19932;-85
2023/09/29 13:33:54;;;;;;;;;;;26.20;51.30;;;25.27;52.40;101286.19;12271481;19;19915;-85
2023/09/29 13:37:57;;;;;;;;;;;26.20;51.30;;;25.30;52.50;101293.88;12270309;19;19921;-85
2023/09/29 13:41:58;;;;;;;;;;;26.20;51.40;;;25.31;52.33;101284.88;12270565;19;19922;-86
2023/09/29 13:46:03;;;;;;;;;;;26.20;51.50;;;25.30;52.07;101269.81;12270390;19;19926;-84
2023/09/29 13:50:07;;;;;;;;;;;26.10;51.40;;;25.19;52.43;101260.28;12267087;19;19915;-85
2023/09/29 13:54:09;;;;;;;;;;;26.10;51.40;;;25.28;52.08;101261.16;12271643;19;20038;-85
2023/09/29 13:58:10;;;;;;;;;;;26.10;51.60;;;25.24;52.52;101265.13;12274438;19;19923;-84
2023/09/29 14:02:12;;;;;;;;;;;26.10;51.60;;;25.16;52.32;101249.94;12279487;19;19997;-85
2023/09/29 14:06:18;;;;;;;;;;;26.10;51.70;;;25.20;52.44;101253.97;12284542;19;19956;-83
2023/09/29 14:10:20;;;;;;;;;;;26.00;51.90;;;25.24;52.20;101249.94;12273151;19;20243;-85
2023/09/29 14:14:22;;;;;;;;;;;26.00;51.80;;;25.23;52.44;101242.09;12284388;19;19940;-84
2023/09/29 14:18:24;;;;;;;;;;;26.00;52.00;;;25.20;52.54;101224.56;12282489;19;19917;-85
2023/09/29 14:22:25;;;;;;;;;;;26.00;52.10;;;25.21;52.40;101222.72;12282016;19;19915;-84
2023/09/29 14:26:27;;;;;;;;;;;26.00;52.10;;;25.17;52.58;101225.72;12283938;19;19923;-84
2023/09/29 14:30:29;;;;;;;;;;;26.00;52.10;;;25.23;52.61;101223.38;12278319;19;19944;-85
2023/09/29 14:34:30;;;;;;;;;;;26.00;52.20;;;25.26;52.40;101231.88;12280615;19;19940;-85
2023/09/29 14:38:32;;;;;;;;;;;26.00;52.20;;;25.09;52.42;101200.81;12278554;19;19953;-85
2023/09/29 14:42:34;;;;;;;;;;;26.00;52.10;;;25.30;52.33;101229.69;12279824;19;19967;-85
2023/09/29 14:46:36;;;;;;;;;;;26.20;52.30;;;25.31;52.58;101224.19;12277959;19;19919;-85
2023/09/29 14:50:39;;;;;;;;;;;26.10;52.30;;;25.34;52.48;101207.81;12273452;19;19930;-85
2023/09/29 14:54:40;;;;;;;;;;;26.10;52.30;;;25.33;52.54;101194.59;12278100;19;19922;-84
2023/09/29 14:58:42;;;;;;;;;;;26.10;52.30;;;25.36;52.75;101207.66;12276643;19;19952;-83
2023/09/29 15:02:44;;;;;;;;;;;26.10;52.30;;;25.37;52.45;101215.50;12278865;19;19920;-85
2023/09/29 15:06:46;;;;;;;;;;;26.10;52.30;;;25.37;52.74;101202.13;12277570;19;19940;-85
2023/09/29 15:10:47;;;;;;;;;;;26.10;52.30;;;25.38;52.68;101200.28;12273967;19;19982;-86
2023/09/29 15:14:49;;;;;;;;;;;26.10;52.40;;;25.35;52.37;101201.44;12269446;19;19946;-85
2023/09/29 15:18:51;;;;;;;;;;;26.10;52.60;;;25.35;52.90;101193.44;12266431;19;19922;-86
2023/09/29 15:22:53;;;;;;;;;;;26.10;52.70;;;25.34;52.62;101194.44;12267511;19;19927;-83
2023/09/29 15:26:55;;;;;;;;;;;26.10;52.80;;;25.33;52.67;101186.59;12269063;19;19915;-85
2023/09/29 15:30:56;;;;;;;;;;;26.10;52.80;;;25.27;52.40;101163.22;12268256;19;19923;-84
2023/09/29 15:34:58;;;;;;;;;;;26.10;52.80;;;25.16;52.51;101164.41;12274250;19;19965;-85
2023/09/29 15:39:00;;;;;;;;;;;26.00;52.80;;;25.20;52.76;101172.94;12271555;19;19947;-84
2023/09/29 15:43:02;;;;;;;;;;;26.00;52.90;;;25.23;52.49;101178.75;12274949;19;19923;-83
2023/09/29 15:47:03;;;;;;;;;;;25.90;52.80;;;25.17;52.56;101180.28;12273118;19;19941;-84
2023/09/29 15:51:08;;;;;;;;;;;25.90;52.80;;;25.17;52.41;101188.28;12268191;19;19933;-85
2023/09/29 15:55:10;;;;;;;;;;;25.90;52.80;;;25.17;52.60;101184.78;12271615;19;20333;-84
2023/09/29 15:59:12;;;;;;;;;;;25.80;52.80;;;25.18;52.46;101197.16;12267811;19;19927;-84
2023/09/29 16:03:13;;;;;;;;;;;25.90;52.90;;;25.17;52.88;101192.81;12270882;19;19918;-84
2023/09/29 16:07:15;;;;;;;;;;;25.80;52.90;;;25.13;52.40;101191.44;12269942;19;19911;-85
2023/09/29 16:11:17;;;;;;;;;;;25.80;52.90;;;25.14;52.41;101191.28;12268487;19;19959;-83
2023/09/29 16:15:18;;;;;;;;;;;25.80;52.90;;;25.13;52.64;101186.09;12269540;19;19934;-84
2023/09/29 16:19:23;;;;;;;;;;;25.80;52.80;;;25.07;52.92;101192.94;12266014;19;20220;-85
2023/09/29 16:23:25;;;;;;;;;;;25.70;52.80;;;25.00;52.75;101180.41;12269267;19;19919;-85
2023/09/29 16:27:27;;;;;;;;;;;25.80;52.80;;;25.05;52.56;101184.25;12264983;19;19949;-83
2023/09/29 16:31:29;;;;;;;;;;;25.70;52.90;;;25.02;53.01;101184.59;12264638;19;19922;-83
2023/09/29 16:35:31;;;;;;;;;;;25.70;52.80;;;25.02;52.58;101186.44;12266316;19;19942;-84
2023/09/29 16:39:33;;;;;;;;;;;25.70;52.80;;;24.99;52.70;101189.44;12263889;19;19929;-85
2023/09/29 16:43:34;;;;;;;;;;;25.70;52.90;;;24.87;52.96;101171.09;12267285;19;19925;-83
2023/09/29 16:47:36;;;;;;;;;;;25.60;52.80;;;24.94;52.73;101196.13;12263207;19;19946;-83
2023/09/29 16:51:38;;;;;;;;;;;25.60;52.80;;;24.92;52.60;101195.47;12266855;19;19987;-84
2023/09/29 16:55:39;;;;;;;;;;;25.60;52.80;;;24.88;53.12;101194.13;12264334;19;19927;-84
2023/09/29 16:59:41;;;;;;;;;;;25.50;52.70;;;24.76;52.99;101178.56;12262669;19;19918;-86
2023/09/29 17:03:43;;;;;;;;;;;25.50;52.80;;;24.80;52.79;101198.63;12262213;19;19922;-83
2023/09/29 17:07:44;;;;;;;;;;;25.40;52.70;;;24.74;53.06;101192.13;12264765;19;20376;-84
2023/09/29 17:11:45;;;;;;;;;;;25.40;52.70;;;24.69;53.18;101186.44;12265982;19;19927;-86
2023/09/29 17:15:47;;;;;;;;;;;25.30;52.70;;;24.66;52.61;101187.59;12264550;19;19923;-86
2023/09/29 17:19:50;;;;;;;;;;;25.30;52.70;;;24.67;52.71;101196.44;12262256;19;19926;-85
2023/09/29 17:23:51;;;;;;;;;;;25.30;52.80;;;24.64;52.95;101197.59;12268582;19;19918;-84
2023/09/29 17:27:53;;;;;;;;;;;25.30;52.90;;;24.60;52.89;101179.41;12270405;19;19915;-85
2023/09/29 17:31:54;;;;;;;;;;;25.20;52.80;;;24.54;52.91;101185.41;12272545;19;19914;-84
2023/09/29 17:35:56;;;;;;;;;;;25.20;52.80;;;24.51;52.95;101183.91;12268383;19;19918;-83
2023/09/29 17:39:58;;;;;;;;;;;25.10;52.80;;;24.42;52.69;101177.69;12293164;19;19922;-84
2023/09/29 17:44:00;;;;;;;;;;;25.10;52.90;;;24.43;52.99;101186.53;12294984;19;19954;-84
2023/09/29 17:48:02;;;;;;;;;;;25.10;53.00;;;24.45;52.71;101188.06;12294090;19;19923;-84
2023/09/29 17:52:04;;;;;;;;;;;25.00;52.90;;;24.43;52.79;101186.53;12295823;19;20276;-84
2023/09/29 17:56:11;;;;;;;;;;;25.00;53.00;;;24.29;52.74;101170.16;12295585;19;19930;-84
2023/09/29 18:00:13;;;;;;;;;;;25.00;53.00;;;24.33;52.84;101164.47;12293529;19;19922;-84
2023/09/29 18:04:16;;;;;;;;;;;25.00;53.10;;;24.34;52.99;101168.84;12292991;19;19926;-85
2023/09/29 18:08:18;;;;;;;;;;;24.90;53.00;;;24.33;53.18;101168.00;12293882;19;20269;-83